createdAt,value
2023-01-27T00:00:29.677Z,93764.75
2023-01-27T00:01:28.128Z,93765.33
2023-01-27T00:02:02.500Z,93763.85
2023-01-27T00:02:38.441Z,93762.33
2023-01-27T00:03:17.295Z,93762.38
2023-01-27T00:03:56.684Z,93761.84
2023-01-27T00:04:30.468Z,93755.16
2023-01-27T00:05:22.749Z,93761.72
2023-01-27T00:06:15.900Z,93763.97
2023-01-27T00:07:25.663Z,93768.48
2023-01-27T00:08:18.386Z,93765.02
2023-01-27T00:09:17.771Z,93755.58
2023-01-27T00:10:34.496Z,93757.23
2023-01-27T00:11:46.237Z,93764.13
2023-01-27T00:12:53.103Z,93768.56
2023-01-27T00:14:01.759Z,93770.08
2023-01-27T00:15:19.733Z,93774.25
2023-01-27T00:16:29.582Z,93776.95
2023-01-27T00:18:16.656Z,93747.51
2023-01-27T00:19:06.378Z,93776.23
2023-01-27T00:19:45.419Z,93774.99
2023-01-27T00:20:58.154Z,93777.02
2023-01-27T00:21:58.475Z,93765.48
2023-01-27T00:22:57.493Z,93759.10
2023-01-27T00:24:02.946Z,93760.21
2023-01-27T00:24:58.452Z,93763.58
2023-01-27T00:26:15.144Z,93768.00
2023-01-27T00:27:03.665Z,93771.02
2023-01-27T00:28:00.591Z,93763.10
2023-01-27T00:30:29.092Z,93769.91
2023-01-27T00:31:39.135Z,93770.97
2023-01-27T00:32:46.837Z,93756.23
2023-01-27T00:33:39.408Z,93767.93
2023-01-27T00:34:28.707Z,93768.27
2023-01-27T00:35:21.001Z,93768.02
2023-01-27T00:37:31.282Z,93755.69
2023-01-27T00:39:14.348Z,93764.80
2023-01-27T00:41:07.518Z,93754.73
2023-01-27T00:43:06.957Z,93757.35
2023-01-27T00:43:57.741Z,93754.27
2023-01-27T00:45:09.353Z,93753.92
2023-01-27T00:46:08.459Z,93762.70
2023-01-27T00:46:58.645Z,93757.76
2023-01-27T00:47:57.895Z,93761.34
2023-01-27T00:48:58.862Z,93756.38
2023-01-27T00:49:59.908Z,93730.21
2023-01-27T00:51:28.670Z,93761.35
2023-01-27T00:52:38.023Z,93759.09
2023-01-27T00:53:30.708Z,93755.02
2023-01-27T00:54:18.510Z,93755.73
2023-01-27T00:55:08.546Z,93758.00
2023-01-27T00:56:03.654Z,93754.45
2023-01-27T00:57:10.612Z,93754.02
2023-01-27T00:57:57.705Z,93750.44
2023-01-27T00:58:58.710Z,93755.07
2023-01-27T00:59:40.244Z,93755.11
2023-01-27T01:03:40.180Z,93757.91
2023-01-27T01:04:50.623Z,93755.11
2023-01-27T01:06:38.013Z,93758.38
2023-01-27T01:08:29.986Z,93753.30
2023-01-27T01:09:11.361Z,93755.88
2023-01-27T01:11:04.780Z,93756.20
2023-01-27T01:11:46.018Z,93754.59
2023-01-27T01:12:43.404Z,93747.68
2023-01-27T01:13:28.806Z,93759.60
2023-01-27T01:14:25.157Z,93757.66
2023-01-27T01:15:09.713Z,93752.94
2023-01-27T01:16:14.446Z,93757.48
2023-01-27T01:17:58.275Z,93761.38
2023-01-27T01:18:35.800Z,93762.59
2023-01-27T01:19:44.839Z,93746.90
2023-01-27T01:20:40.884Z,93761.83
2023-01-27T01:21:41.194Z,93743.64
2023-01-27T01:22:41.384Z,93763.47
2023-01-27T01:23:40.021Z,93758.06
2023-01-27T01:24:25.824Z,93764.11
2023-01-27T01:25:08.233Z,93764.33
2023-01-27T01:25:45.735Z,93763.56
2023-01-27T01:26:30.394Z,93761.91
2023-01-27T01:27:26.327Z,93759.12
2023-01-27T01:28:15.300Z,93751.42
2023-01-27T01:29:11.149Z,93752.34
2023-01-27T01:29:58.669Z,93759.75
2023-01-27T01:31:11.207Z,93758.86
2023-01-27T01:31:55.741Z,93755.23
2023-01-27T01:32:45.255Z,93758.92
2023-01-27T01:33:39.687Z,93747.84
2023-01-27T01:34:26.923Z,93747.75
2023-01-27T01:35:14.694Z,93756.98
2023-01-27T01:35:59.931Z,93754.95
2023-01-27T01:36:47.456Z,93755.08
2023-01-27T01:37:33.668Z,93747.84
2023-01-27T01:38:28.598Z,93740.19
2023-01-27T01:39:15.703Z,93751.58
2023-01-27T01:39:55.901Z,93751.48
2023-01-27T01:40:56.340Z,93755.38
2023-01-27T01:41:34.541Z,93752.04
2023-01-27T01:43:30.287Z,93756.35
2023-01-27T01:44:30.112Z,93746.27
2023-01-27T01:45:29.352Z,93750.10
2023-01-27T01:46:13.697Z,93745.99
2023-01-27T01:47:17.489Z,93743.65
2023-01-27T01:48:27.711Z,93746.73
2023-01-27T01:49:06.912Z,93746.75
2023-01-27T01:50:27.069Z,93722.23
2023-01-27T01:51:22.307Z,93745.95
2023-01-27T01:52:25.619Z,93749.15
2023-01-27T01:53:17.893Z,93744.39
2023-01-27T01:54:31.321Z,93750.33
2023-01-27T01:55:12.140Z,93754.92
2023-01-27T01:56:19.890Z,93755.85
2023-01-27T01:57:23.134Z,93742.84
2023-01-27T01:58:28.686Z,93753.67
2023-01-27T01:59:37.823Z,93758.53
2023-01-27T02:00:47.210Z,93756.15
2023-01-27T02:01:36.585Z,93746.31
2023-01-27T02:02:33.433Z,93755.67
2023-01-27T02:03:30.782Z,93749.36
2023-01-27T02:05:39.582Z,93745.63
2023-01-27T02:06:30.822Z,93743.98
2023-01-27T02:07:36.252Z,93734.96
2023-01-27T02:08:46.439Z,93740.02
2023-01-27T02:09:39.823Z,93733.88
2023-01-27T02:10:29.528Z,93737.77
2023-01-27T02:11:15.831Z,93738.16
2023-01-27T02:12:14.037Z,93737.55
2023-01-27T02:13:04.045Z,93724.97
2023-01-27T02:13:56.755Z,93738.88
2023-01-27T02:14:36.759Z,93736.50
2023-01-27T02:15:27.664Z,93737.78
2023-01-27T02:16:14.421Z,93739.70
2023-01-27T02:17:08.051Z,93733.58
2023-01-27T02:17:49.750Z,93735.38
2023-01-27T02:18:36.154Z,93716.77
2023-01-27T02:20:01.304Z,93738.09
2023-01-27T02:21:10.380Z,93733.40
2023-01-27T02:21:58.628Z,93740.21
2023-01-27T02:23:30.656Z,93736.66
2023-01-27T02:24:15.497Z,93737.81
2023-01-27T02:25:10.244Z,93712.61
2023-01-27T02:26:31.555Z,93736.78
2023-01-27T02:27:25.040Z,93736.39
2023-01-27T02:28:28.878Z,93736.40
2023-01-27T02:29:15.127Z,93734.95
2023-01-27T02:30:36.623Z,93733.17
2023-01-27T02:31:13.206Z,93734.27
2023-01-27T02:32:34.160Z,93732.15
2023-01-27T02:33:14.068Z,93727.36
2023-01-27T02:33:56.364Z,93729.06
2023-01-27T02:34:39.592Z,93721.52
2023-01-27T02:35:38.495Z,93730.30
2023-01-27T02:36:25.172Z,93725.89
2023-01-27T02:37:16.249Z,93731.42
2023-01-27T02:38:03.311Z,93730.52
2023-01-27T02:38:59.301Z,93708.29
2023-01-27T02:39:47.687Z,93729.17
2023-01-27T02:40:32.825Z,93730.13
2023-01-27T02:41:30.299Z,93732.95
2023-01-27T02:42:17.836Z,93727.30
2023-01-27T02:43:09.740Z,93728.96
2023-01-27T02:43:43.827Z,93728.48
2023-01-27T02:44:27.588Z,93722.98
2023-01-27T02:45:27.635Z,93730.36
2023-01-27T02:46:14.016Z,93730.88
2023-01-27T02:46:55.146Z,93736.00
2023-01-27T02:47:50.607Z,93730.27
2023-01-27T02:48:34.563Z,93732.29
2023-01-27T02:51:04.786Z,93734.30
2023-01-27T02:52:16.466Z,93732.77
2023-01-27T02:53:02.578Z,93732.70
2023-01-27T02:53:37.108Z,93731.20
2023-01-27T02:54:31.693Z,93730.81
2023-01-27T02:55:16.943Z,93729.16
2023-01-27T02:56:10.860Z,93732.70
2023-01-27T02:56:56.290Z,93724.97
2023-01-27T02:57:39.074Z,93730.48
2023-01-27T02:58:41.918Z,93729.96
2023-01-27T02:59:35.234Z,93719.79
2023-01-27T03:00:33.501Z,93728.27
2023-01-27T03:01:15.409Z,93732.86
2023-01-27T03:02:32.934Z,93730.96
2023-01-27T03:03:25.731Z,93728.71
2023-01-27T03:05:25.903Z,93731.60
2023-01-27T03:06:10.831Z,93724.92
2023-01-27T03:07:07.332Z,93716.73
2023-01-27T03:07:43.649Z,93715.60
2023-01-27T03:08:26.732Z,93721.66
2023-01-27T03:09:03.661Z,93728.16
2023-01-27T03:09:48.054Z,93710.66
2023-01-27T03:10:28.363Z,93730.32
2023-01-27T03:11:35.362Z,93731.84
2023-01-27T03:12:29.633Z,93733.36
2023-01-27T03:13:22.384Z,93732.59
2023-01-27T03:14:08.756Z,93731.27
2023-01-27T03:15:10.161Z,93733.20
2023-01-27T03:16:14.771Z,93735.04
2023-01-27T03:17:25.615Z,93740.23
2023-01-27T03:18:33.237Z,93736.11
2023-01-27T03:19:08.715Z,93741.95
2023-01-27T03:20:26.361Z,93723.14
2023-01-27T03:21:11.967Z,93730.08
2023-01-27T03:22:00.443Z,93742.64
2023-01-27T03:22:47.894Z,93744.75
2023-01-27T03:23:50.804Z,93739.97
2023-01-27T03:24:39.349Z,93739.98
2023-01-27T03:25:30.744Z,93740.42
2023-01-27T03:26:15.997Z,93736.27
2023-01-27T03:27:00.771Z,93743.70
2023-01-27T03:28:03.224Z,93742.15
2023-01-27T03:29:17.413Z,93746.52
2023-01-27T03:29:57.774Z,93740.49
2023-01-27T03:31:09.704Z,93736.08
2023-01-27T03:32:10.482Z,93746.80
2023-01-27T03:33:15.367Z,93744.50
2023-01-27T03:34:28.835Z,93745.05
2023-01-27T03:35:25.718Z,93742.75
2023-01-27T03:36:24.877Z,93739.61
2023-01-27T03:37:24.427Z,93743.73
2023-01-27T03:38:29.715Z,93742.51
2023-01-27T03:39:59.001Z,93741.35
2023-01-27T03:41:12.933Z,93746.31
2023-01-27T03:42:10.323Z,93739.27
2023-01-27T03:43:28.375Z,93739.53
2023-01-27T03:44:28.411Z,93739.36
2023-01-27T03:45:25.655Z,93727.92
2023-01-27T03:46:24.342Z,93732.23
2023-01-27T03:47:16.741Z,93733.38
2023-01-27T03:47:59.262Z,93728.52
2023-01-27T03:48:44.288Z,93716.80
2023-01-27T03:49:40.034Z,93710.38
2023-01-27T03:50:40.359Z,93725.04
2023-01-27T03:51:31.411Z,93724.04
2023-01-27T03:52:13.198Z,93721.98
2023-01-27T03:53:24.398Z,93724.02
2023-01-27T03:54:07.317Z,93721.20
2023-01-27T03:54:44.523Z,93720.65
2023-01-27T03:55:29.939Z,93725.79
2023-01-27T03:56:16.121Z,93723.55
2023-01-27T03:56:59.403Z,93722.19
2023-01-27T03:57:40.487Z,93718.04
2023-01-27T03:58:39.370Z,93712.16
2023-01-27T03:59:31.778Z,93716.14
2023-01-27T04:00:30.183Z,93714.08
2023-01-27T04:01:15.762Z,93717.84
2023-01-27T04:02:30.935Z,93714.36
2023-01-27T04:03:42.049Z,93716.52
2023-01-27T04:04:37.288Z,93705.28
2023-01-27T04:05:37.703Z,93714.48
2023-01-27T04:07:14.122Z,93708.24
2023-01-27T04:08:08.378Z,93713.14
2023-01-27T04:09:07.691Z,93706.52
2023-01-27T04:09:54.931Z,93718.77
2023-01-27T04:10:35.100Z,93717.90
2023-01-27T04:11:31.850Z,93719.41
2023-01-27T04:12:27.051Z,93720.18
2023-01-27T04:13:07.558Z,93723.85
2023-01-27T04:13:46.703Z,93725.63
2023-01-27T04:14:43.467Z,93724.09
2023-01-27T04:15:24.409Z,93729.77
2023-01-27T04:16:15.279Z,93735.59
2023-01-27T04:17:04.486Z,93730.27
2023-01-27T04:17:57.156Z,93733.30
2023-01-27T04:18:38.577Z,93709.26
2023-01-27T04:19:26.845Z,93732.32
2023-01-27T04:20:28.802Z,93733.00
2023-01-27T04:21:19.377Z,93733.91
2023-01-27T04:22:10.601Z,93731.13
2023-01-27T04:22:45.876Z,93726.70
2023-01-27T04:23:31.833Z,93732.11
2023-01-27T04:24:36.750Z,93732.58
2023-01-27T04:25:16.282Z,93734.19
2023-01-27T04:26:26.720Z,93728.92
2023-01-27T04:27:28.917Z,93726.56
2023-01-27T04:28:29.057Z,93735.30
2023-01-27T04:29:12.060Z,93730.46
2023-01-27T04:31:18.179Z,93742.64
2023-01-27T04:32:10.615Z,93746.65
2023-01-27T04:32:55.688Z,93745.16
2023-01-27T04:33:47.828Z,93742.52
2023-01-27T04:34:42.074Z,93748.58
2023-01-27T04:35:23.347Z,93747.99
2023-01-27T04:35:59.678Z,93746.44
2023-01-27T04:36:44.317Z,93742.08
2023-01-27T04:37:26.255Z,93730.59
2023-01-27T04:38:07.440Z,93741.95
2023-01-27T04:38:43.327Z,93724.27
2023-01-27T04:39:26.463Z,93737.87
2023-01-27T04:40:06.238Z,93737.21
2023-01-27T04:40:57.534Z,93736.15
2023-01-27T04:41:43.563Z,93735.06
2023-01-27T04:42:31.179Z,93738.52
2023-01-27T04:43:29.438Z,93740.77
2023-01-27T04:44:14.022Z,93744.34
2023-01-27T04:44:57.393Z,93740.86
2023-01-27T04:45:31.768Z,93743.46
2023-01-27T04:46:35.324Z,93743.59
2023-01-27T04:47:16.058Z,93744.29
2023-01-27T04:48:15.535Z,93745.19
2023-01-27T04:48:56.683Z,93739.37
2023-01-27T04:49:30.640Z,93742.90
2023-01-27T04:50:31.503Z,93743.38
2023-01-27T04:51:12.594Z,93741.17
2023-01-27T04:51:55.900Z,93743.88
2023-01-27T04:52:30.105Z,93742.61
2023-01-27T04:53:15.317Z,93739.91
2023-01-27T04:53:49.269Z,93740.48
2023-01-27T04:54:35.126Z,93740.90
2023-01-27T04:55:14.689Z,93735.26
2023-01-27T04:57:16.221Z,93727.35
2023-01-27T04:58:00.267Z,93725.84
2023-01-27T04:58:34.944Z,93717.02
2023-01-27T04:59:26.894Z,93727.27
2023-01-27T05:00:03.486Z,93727.06
2023-01-27T05:01:07.923Z,93725.17
2023-01-27T05:01:44.204Z,93724.05
2023-01-27T05:02:22.300Z,93702.32
2023-01-27T05:03:03.336Z,93719.83
2023-01-27T05:03:44.294Z,93718.30
2023-01-27T05:04:19.403Z,93721.20
2023-01-27T05:04:58.799Z,93720.23
2023-01-27T05:05:46.347Z,93703.99
2023-01-27T05:06:39.473Z,93726.05
2023-01-27T05:07:15.869Z,93721.60
2023-01-27T05:08:14.214Z,93726.98
2023-01-27T05:10:16.445Z,93725.55
2023-01-27T05:10:58.667Z,93726.64
2023-01-27T05:11:34.733Z,93720.16
2023-01-27T05:12:14.201Z,93726.73
2023-01-27T05:12:53.316Z,93727.47
2023-01-27T05:13:37.026Z,93727.02
2023-01-27T05:14:15.370Z,93725.02
2023-01-27T05:14:58.756Z,93725.16
2023-01-27T05:15:37.164Z,93719.65
2023-01-27T05:16:30.649Z,93721.88
2023-01-27T05:17:10.811Z,93712.04
2023-01-27T05:17:46.644Z,93720.48
2023-01-27T05:18:28.152Z,93715.41
2023-01-27T05:19:09.138Z,93720.94
2023-01-27T05:19:47.015Z,93721.77
2023-01-27T05:20:36.572Z,93721.36
2023-01-27T05:21:28.516Z,93721.38
2023-01-27T05:22:11.637Z,93722.33
2023-01-27T05:22:48.701Z,93717.59
2023-01-27T05:23:37.620Z,93718.45
2023-01-27T05:24:14.444Z,93720.19
2023-01-27T05:24:48.043Z,93716.16
2023-01-27T05:25:27.589Z,93712.73
2023-01-27T05:26:17.530Z,93713.73
2023-01-27T05:26:58.913Z,93711.36
2023-01-27T05:27:32.572Z,93713.48
2023-01-27T05:28:09.659Z,93712.87
2023-01-27T05:28:45.557Z,93713.46
2023-01-27T05:29:29.313Z,93716.78
2023-01-27T05:30:03.350Z,93714.19
2023-01-27T05:30:39.497Z,93716.41
2023-01-27T05:31:23.608Z,93716.67
2023-01-27T05:31:57.812Z,93715.05
2023-01-27T05:32:31.410Z,93717.33
2023-01-27T05:33:08.575Z,93719.02
2023-01-27T05:33:42.791Z,93720.38
2023-01-27T05:34:17.070Z,93716.54
2023-01-27T05:34:56.673Z,93713.81
2023-01-27T05:35:35.446Z,93719.05
2023-01-27T05:36:11.934Z,93717.79
2023-01-27T05:36:46.530Z,93717.41
2023-01-27T05:37:28.709Z,93714.89
2023-01-27T05:38:04.596Z,93717.60
2023-01-27T05:38:39.858Z,93719.38
2023-01-27T05:39:13.645Z,93720.89
2023-01-27T05:39:47.298Z,93717.67
2023-01-27T05:40:29.745Z,93720.39
2023-01-27T05:41:06.895Z,93720.02
2023-01-27T05:41:40.942Z,93719.58
2023-01-27T05:42:18.004Z,93714.88
2023-01-27T05:43:18.102Z,93724.11
2023-01-27T05:43:56.404Z,93725.94
2023-01-27T05:44:32.726Z,93728.06
2023-01-27T05:45:08.597Z,93728.77
2023-01-27T05:45:42.284Z,93731.98
2023-01-27T05:46:25.299Z,93733.62
2023-01-27T05:46:59.194Z,93730.06
2023-01-27T05:47:47.132Z,93728.52
2023-01-27T05:48:27.678Z,93731.26
2023-01-27T05:49:07.979Z,93727.88
2023-01-27T05:49:41.660Z,93734.58
2023-01-27T05:50:16.060Z,93732.55
2023-01-27T05:51:04.429Z,93736.08
2023-01-27T05:52:28.103Z,93727.95
2023-01-27T05:52:46.691Z,93736.73
2023-01-27T05:53:27.517Z,93737.47
2023-01-27T05:54:06.743Z,93738.66
2023-01-27T05:54:42.594Z,93737.29
2023-01-27T05:55:17.842Z,93735.80
2023-01-27T05:55:59.795Z,93737.84
2023-01-27T05:56:39.504Z,93712.71
2023-01-27T05:57:14.494Z,93740.53
2023-01-27T05:57:48.390Z,93743.09
2023-01-27T05:58:32.691Z,93741.20
2023-01-27T05:59:08.440Z,93743.58
2023-01-27T05:59:42.396Z,93748.73
2023-01-27T06:00:27.748Z,93746.16
2023-01-27T06:01:20.659Z,93747.90
2023-01-27T06:02:02.818Z,93749.13
2023-01-27T06:02:39.249Z,93749.64
2023-01-27T06:04:30.112Z,93751.56
2023-01-27T06:05:06.894Z,93750.61
2023-01-27T06:05:56.713Z,93756.64
2023-01-27T06:06:36.510Z,93752.14
2023-01-27T06:07:10.157Z,93756.83
2023-01-27T06:07:46.327Z,93757.34
2023-01-27T06:08:27.699Z,93757.96
2023-01-27T06:09:15.092Z,93762.67
2023-01-27T06:09:58.940Z,93761.83
2023-01-27T06:10:34.247Z,93762.36
2023-01-27T06:11:10.588Z,93762.73
2023-01-27T06:11:47.579Z,93765.73
2023-01-27T06:12:28.069Z,93762.42
2023-01-27T06:13:04.443Z,93763.52
2023-01-27T06:13:41.960Z,93763.98
2023-01-27T06:14:17.690Z,93767.38
2023-01-27T06:15:05.381Z,93762.95
2023-01-27T06:15:41.538Z,93765.27
2023-01-27T06:16:18.390Z,93763.39
2023-01-27T06:16:58.253Z,93763.16
2023-01-27T06:17:31.839Z,93760.41
2023-01-27T06:18:07.800Z,93763.92
2023-01-27T06:18:44.254Z,93765.35
2023-01-27T06:19:36.637Z,93763.87
2023-01-27T06:20:33.998Z,93765.81
2023-01-27T06:21:11.854Z,93763.89
2023-01-27T06:21:46.930Z,93759.46
2023-01-27T06:22:27.118Z,93757.73
2023-01-27T06:23:06.988Z,93758.23
2023-01-27T06:23:41.163Z,93761.94
2023-01-27T06:24:15.048Z,93760.35
2023-01-27T06:24:48.943Z,93760.67
2023-01-27T06:25:26.580Z,93757.48
2023-01-27T06:26:12.736Z,93764.65
2023-01-27T06:26:46.459Z,93763.20
2023-01-27T06:27:22.048Z,93764.39
2023-01-27T06:28:01.675Z,93768.83
2023-01-27T06:28:42.004Z,93770.52
2023-01-27T06:29:17.658Z,93757.95
2023-01-27T06:29:56.778Z,93772.17
2023-01-27T06:30:30.512Z,93778.20
2023-01-27T06:31:19.104Z,93758.74
2023-01-27T06:32:02.021Z,93774.75
2023-01-27T06:32:37.918Z,93775.15
2023-01-27T06:33:14.866Z,93776.67
2023-01-27T06:33:48.831Z,93771.69
2023-01-27T06:34:29.839Z,93774.13
2023-01-27T06:35:04.447Z,93772.35
2023-01-27T06:35:39.919Z,93770.77
2023-01-27T06:36:16.507Z,93770.46
2023-01-27T06:37:00.435Z,93767.88
2023-01-27T06:37:40.330Z,93770.34
2023-01-27T06:38:15.774Z,93768.77
2023-01-27T06:38:50.499Z,93766.36
2023-01-27T06:39:27.166Z,93769.32
2023-01-27T06:40:00.624Z,93770.28
2023-01-27T06:40:42.240Z,93772.27
2023-01-27T06:41:17.172Z,93771.71
2023-01-27T06:41:57.672Z,93767.98
2023-01-27T06:42:31.645Z,93772.72
2023-01-27T06:43:05.227Z,93772.17
2023-01-27T06:43:38.693Z,93771.73
2023-01-27T06:44:12.248Z,93773.18
2023-01-27T06:44:45.963Z,93770.57
2023-01-27T06:45:24.441Z,93775.77
2023-01-27T06:45:58.560Z,93774.48
2023-01-27T06:46:32.327Z,93777.45
2023-01-27T06:47:07.192Z,93777.94
2023-01-27T06:47:41.405Z,93782.80
2023-01-27T06:48:15.041Z,93780.45
2023-01-27T06:48:48.624Z,93780.36
2023-01-27T06:49:29.947Z,93782.58
2023-01-27T06:50:57.849Z,93777.39
2023-01-27T06:51:31.465Z,93780.55
2023-01-27T06:52:05.140Z,93782.93
2023-01-27T06:52:48.627Z,93780.34
2023-01-27T06:53:27.788Z,93782.89
2023-01-27T06:54:11.243Z,93781.80
2023-01-27T06:54:44.875Z,93782.54
2023-01-27T06:55:27.403Z,93785.96
2023-01-27T06:56:08.738Z,93789.26
2023-01-27T06:56:42.596Z,93792.02
2023-01-27T06:57:16.804Z,93788.44
2023-01-27T06:57:56.497Z,93789.40
2023-01-27T06:58:30.224Z,93790.07
2023-01-27T06:59:06.546Z,93789.77
2023-01-27T06:59:41.162Z,93791.22
2023-01-27T07:00:30.358Z,93792.00
2023-01-27T07:01:07.652Z,93791.54
2023-01-27T07:01:41.811Z,93787.90
2023-01-27T07:03:58.961Z,93791.77
2023-01-27T07:04:40.143Z,93791.69
2023-01-27T07:05:16.940Z,93794.32
2023-01-27T07:05:58.105Z,93788.63
2023-01-27T07:06:31.751Z,93794.13
2023-01-27T07:07:11.876Z,93795.17
2023-01-27T07:07:46.698Z,93792.15
2023-01-27T07:08:33.159Z,93792.75
2023-01-27T07:09:11.695Z,93790.85
2023-01-27T07:09:52.904Z,93790.90
2023-01-27T07:10:32.992Z,93788.90
2023-01-27T07:11:13.031Z,93791.80
2023-01-27T07:11:52.258Z,93790.42
2023-01-27T07:12:28.779Z,93791.55
2023-01-27T07:13:12.174Z,93792.66
2023-01-27T07:13:59.446Z,93792.81
2023-01-27T07:14:36.857Z,93795.45
2023-01-27T07:15:14.452Z,93798.83
2023-01-27T07:15:53.168Z,93798.41
2023-01-27T07:16:36.774Z,93779.16
2023-01-27T07:17:17.928Z,93802.86
2023-01-27T07:17:59.703Z,93796.95
2023-01-27T07:18:34.924Z,93798.25
2023-01-27T07:19:15.259Z,93800.30
2023-01-27T07:21:09.804Z,93801.36
2023-01-27T07:21:48.425Z,93795.11
2023-01-27T07:22:29.978Z,93784.91
2023-01-27T07:23:17.905Z,93798.46
2023-01-27T07:23:59.141Z,93795.65
2023-01-27T07:24:32.999Z,93793.90
2023-01-27T07:25:07.109Z,93787.11
2023-01-27T07:25:40.557Z,93790.00
2023-01-27T07:26:24.501Z,93790.90
2023-01-27T07:26:58.708Z,93789.83
2023-01-27T07:27:38.272Z,93775.77
2023-01-27T07:28:18.253Z,93790.36
2023-01-27T07:28:58.803Z,93793.34
2023-01-27T07:29:41.773Z,93793.87
2023-01-27T07:30:29.208Z,93796.46
2023-01-27T07:31:10.760Z,93795.63
2023-01-27T07:31:47.158Z,93798.45
2023-01-27T07:32:28.612Z,93798.38
2023-01-27T07:33:13.302Z,93801.13
2023-01-27T07:33:47.608Z,93797.58
2023-01-27T07:34:37.959Z,93794.02
2023-01-27T07:35:16.232Z,93800.93
2023-01-27T07:36:09.737Z,93803.89
2023-01-27T07:36:46.585Z,93804.41
2023-01-27T07:37:44.199Z,93805.45
2023-01-27T07:38:17.779Z,93809.80
2023-01-27T07:38:58.925Z,93810.63
2023-01-27T07:39:33.833Z,93811.35
2023-01-27T07:40:29.466Z,93809.28
2023-01-27T07:41:07.918Z,93810.52
2023-01-27T07:41:43.852Z,93806.59
2023-01-27T07:42:32.055Z,93809.30
2023-01-27T07:43:11.955Z,93805.37
2023-01-27T07:43:47.688Z,93805.39
2023-01-27T07:44:41.994Z,93799.77
2023-01-27T07:45:17.944Z,93801.51
2023-01-27T07:46:02.789Z,93805.40
2023-01-27T07:46:38.834Z,93810.14
2023-01-27T07:47:24.326Z,93808.56
2023-01-27T07:48:09.726Z,93810.48
2023-01-27T07:48:45.974Z,93812.49
2023-01-27T07:49:27.550Z,93810.64
2023-01-27T07:50:02.641Z,93810.45
2023-01-27T07:50:40.040Z,93807.35
2023-01-27T07:51:27.569Z,93810.61
2023-01-27T07:52:16.010Z,93811.36
2023-01-27T07:53:01.230Z,93807.15
2023-01-27T07:53:37.979Z,93808.92
2023-01-27T07:54:12.122Z,93816.24
2023-01-27T07:54:45.871Z,93816.88
2023-01-27T07:55:30.310Z,93822.13
2023-01-27T07:56:15.844Z,93820.92
2023-01-27T07:57:16.633Z,93822.14
2023-01-27T07:57:54.395Z,93819.02
2023-01-27T07:58:33.110Z,93818.77
2023-01-27T07:59:13.359Z,93819.33
2023-01-27T07:59:59.139Z,93818.83
2023-01-27T08:00:34.997Z,93814.47
2023-01-27T08:01:13.371Z,93821.71
2023-01-27T08:01:59.113Z,93821.06
2023-01-27T08:02:32.924Z,93818.34
2023-01-27T08:03:27.309Z,93820.11
2023-01-27T08:04:04.626Z,93820.65
2023-01-27T08:04:52.425Z,93817.48
2023-01-27T08:05:36.375Z,93817.40
2023-01-27T08:06:17.325Z,93816.65
2023-01-27T08:07:04.595Z,93816.45
2023-01-27T08:07:38.503Z,93814.60
2023-01-27T08:08:15.413Z,93818.64
2023-01-27T08:08:55.258Z,93812.27
2023-01-27T08:09:28.910Z,93815.99
2023-01-27T08:10:39.220Z,93813.27
2023-01-27T08:11:32.479Z,93813.14
2023-01-27T08:14:08.241Z,93813.05
2023-01-27T08:15:40.546Z,93816.65
2023-01-27T08:16:56.682Z,93813.29
2023-01-27T08:21:32.025Z,93810.16
2023-01-27T08:23:25.818Z,93809.23
2023-01-27T08:26:25.438Z,93811.92
2023-01-27T08:40:39.838Z,93800.33
2023-01-27T08:41:28.240Z,93797.69
2023-01-27T08:44:19.329Z,93797.46
2023-01-27T08:46:37.947Z,93799.31
2023-01-27T08:47:16.061Z,93797.23
2023-01-27T08:48:15.361Z,93796.80
2023-01-27T08:48:57.127Z,93801.30
2023-01-27T08:49:39.628Z,93800.99
2023-01-27T08:50:37.230Z,93800.45
2023-01-27T08:51:37.468Z,93800.98
2023-01-27T08:52:13.295Z,93796.85
2023-01-27T08:53:22.564Z,93793.06
2023-01-27T08:56:36.592Z,93799.19
2023-01-27T08:57:15.120Z,93803.84
2023-01-27T08:58:39.779Z,93805.20
2023-01-27T08:59:35.875Z,93811.38
2023-01-27T09:00:49.932Z,93808.54
2023-01-27T09:01:48.569Z,93813.75
2023-01-27T09:09:34.872Z,93816.69
2023-01-27T09:10:41.361Z,93814.95
2023-01-27T09:11:25.761Z,93819.95
2023-01-27T09:12:38.543Z,93818.60
2023-01-27T09:13:13.927Z,93821.39
2023-01-27T09:14:01.023Z,93823.83
2023-01-27T09:15:44.147Z,93825.36
2023-01-27T09:17:02.493Z,93824.59
2023-01-27T09:18:36.073Z,93825.83
2023-01-27T09:19:41.600Z,93815.79
2023-01-27T09:20:38.709Z,93827.66
2023-01-27T09:21:33.468Z,93831.52
2023-01-27T09:22:09.776Z,93829.40
2023-01-27T09:23:12.603Z,93831.93
2023-01-27T09:23:58.182Z,93831.66
2023-01-27T09:26:05.860Z,93826.85
2023-01-27T09:26:39.814Z,93819.30
2023-01-27T09:28:02.881Z,93837.58
2023-01-27T09:28:44.549Z,93824.84
2023-01-27T09:29:56.165Z,93836.48
2023-01-27T09:30:30.132Z,93839.27
2023-01-27T09:31:03.608Z,93840.54
2023-01-27T09:31:37.039Z,93840.11
2023-01-27T09:32:19.492Z,93835.52
2023-01-27T09:32:52.986Z,93839.75
2023-01-27T09:33:27.655Z,93838.14
2023-01-27T09:34:01.312Z,93839.84
2023-01-27T09:34:35.876Z,93837.06
2023-01-27T09:35:09.759Z,93837.40
2023-01-27T09:35:55.061Z,93840.52
2023-01-27T09:36:29.117Z,93835.39
2023-01-27T09:37:08.941Z,93836.59
2023-01-27T09:37:53.048Z,93841.73
2023-01-27T09:38:29.081Z,93836.99
2023-01-27T09:39:09.314Z,93841.96
2023-01-27T09:39:54.540Z,93840.73
2023-01-27T09:40:36.077Z,93841.25
2023-01-27T09:41:09.415Z,93840.60
2023-01-27T09:42:07.703Z,93838.88
2023-01-27T09:42:49.812Z,93840.61
2023-01-27T09:44:14.264Z,93837.05
2023-01-27T09:44:50.518Z,93839.88
2023-01-27T09:45:42.486Z,93846.14
2023-01-27T09:46:30.707Z,93841.73
2023-01-27T09:47:19.414Z,93843.88
2023-01-27T09:48:12.083Z,93845.45
2023-01-27T09:48:58.733Z,93843.65
2023-01-27T09:50:06.080Z,93841.77
2023-01-27T09:51:04.042Z,93845.89
2023-01-27T09:51:59.475Z,93839.06
2023-01-27T09:53:03.127Z,93839.82
2023-01-27T09:54:02.901Z,93838.71
2023-01-27T09:55:18.108Z,93844.48
2023-01-27T09:55:57.249Z,93838.55
2023-01-27T09:56:38.523Z,93843.41
2023-01-27T09:57:36.310Z,93843.95
2023-01-27T09:58:28.476Z,93839.44
2023-01-27T09:59:19.139Z,93843.91
2023-01-27T10:00:06.875Z,93839.23
2023-01-27T10:01:08.180Z,93838.36
2023-01-27T10:01:56.333Z,93841.46
2023-01-27T10:02:53.479Z,93842.02
2023-01-27T10:03:51.805Z,93841.88
2023-01-27T10:04:43.636Z,93840.11
2023-01-27T10:05:32.940Z,93836.73
2023-01-27T10:06:32.661Z,93838.27
2023-01-27T10:07:38.621Z,93835.21
2023-01-27T10:08:26.306Z,93833.61
2023-01-27T10:09:15.001Z,93833.47
2023-01-27T10:10:06.889Z,93827.60
2023-01-27T10:11:02.701Z,93831.89
2023-01-27T10:12:18.062Z,93829.48
2023-01-27T10:13:34.076Z,93832.28
2023-01-27T10:14:22.476Z,93833.95
2023-01-27T10:15:16.754Z,93837.48
2023-01-27T10:16:13.730Z,93837.45
2023-01-27T10:17:05.770Z,93842.64
2023-01-27T10:17:41.893Z,93837.17
2023-01-27T10:18:24.293Z,93838.52
2023-01-27T10:19:16.493Z,93837.70
2023-01-27T10:20:12.527Z,93836.38
2023-01-27T10:21:10.177Z,93838.94
2023-01-27T10:21:51.981Z,93838.48
2023-01-27T10:22:34.197Z,93837.35
2023-01-27T10:23:30.116Z,93841.30
2023-01-27T10:24:33.385Z,93835.11
2023-01-27T10:25:15.334Z,93837.90
2023-01-27T10:25:57.695Z,93838.56
2023-01-27T10:26:48.596Z,93829.30
2023-01-27T10:27:24.161Z,93830.98